createdAt,value
2022-10-15T00:01:21.544Z,51.17
2022-10-15T00:03:48.697Z,62.27
2022-10-15T00:06:21.051Z,54.63
2022-10-15T00:08:48.935Z,53.50
2022-10-15T00:11:18.854Z,51.40
2022-10-15T00:13:45.861Z,54.50
2022-10-15T00:16:16.851Z,46.67
2022-10-15T00:18:44.097Z,42.13
2022-10-15T00:21:13.194Z,44.77
2022-10-15T00:23:40.212Z,44.50
2022-10-15T00:26:10.179Z,49.80
2022-10-15T00:28:37.635Z,47.03
2022-10-15T00:31:07.504Z,41.43
2022-10-15T00:33:34.941Z,47.93
2022-10-15T00:36:09.644Z,48.73
2022-10-15T00:38:37.180Z,48.43
2022-10-15T00:41:06.884Z,42.20
2022-10-15T00:43:49.163Z,38.40
2022-10-15T00:46:22.687Z,40.77
2022-10-15T00:48:57.177Z,39.87
2022-10-15T00:51:31.538Z,35.93
2022-10-15T00:53:59.078Z,41.97
2022-10-15T00:56:31.650Z,35.17
2022-10-15T00:58:59.186Z,39.73
2022-10-15T01:01:26.516Z,35.43
2022-10-15T01:03:55.869Z,35.50
2022-10-15T01:06:23.902Z,34.77
2022-10-15T01:08:51.879Z,39.53
2022-10-15T01:11:40.873Z,34.20
2022-10-15T01:14:13.372Z,37.53
2022-10-15T01:17:00.682Z,34.13
2022-10-15T01:20:05.396Z,36.40
2022-10-15T01:22:38.304Z,30.03
2022-10-15T01:25:43.862Z,35.63
2022-10-15T01:29:03.297Z,34.07
2022-10-15T01:31:51.636Z,30.70
2022-10-15T01:34:53.117Z,42.97
2022-10-15T01:37:44.567Z,38.30
2022-10-15T01:40:20.061Z,37.13
2022-10-15T01:42:57.119Z,40.00
2022-10-15T01:45:43.964Z,39.43
2022-10-15T01:48:33.982Z,36.80
2022-10-15T01:51:03.978Z,34.73
2022-10-15T01:53:34.432Z,34.73
2022-10-15T01:56:07.672Z,38.43
2022-10-15T01:58:41.062Z,32.83
2022-10-15T02:01:08.401Z,30.20
2022-10-15T02:03:50.975Z,31.97
2022-10-15T02:06:20.963Z,34.10
2022-10-15T02:08:53.744Z,32.33
2022-10-15T02:11:20.924Z,35.47
2022-10-15T02:14:16.341Z,33.57
2022-10-15T02:17:03.151Z,29.07
2022-10-15T02:19:39.824Z,32.50
2022-10-15T02:22:12.416Z,35.10
2022-10-15T02:25:02.378Z,34.10
2022-10-15T02:27:32.888Z,36.17
2022-10-15T02:30:04.669Z,34.57
2022-10-15T02:32:35.563Z,32.27
2022-10-15T02:35:03.496Z,37.37
2022-10-15T02:37:32.262Z,35.43
2022-10-15T02:39:59.237Z,34.30
2022-10-15T02:42:27.064Z,32.53
2022-10-15T02:44:54.103Z,32.63
2022-10-15T02:47:21.387Z,32.50
2022-10-15T02:49:48.359Z,32.77
2022-10-15T02:52:15.670Z,31.60
2022-10-15T02:54:42.727Z,31.53
2022-10-15T02:57:09.727Z,31.80
2022-10-15T02:59:36.840Z,28.53
2022-10-15T03:02:04.024Z,29.43
2022-10-15T03:04:32.199Z,30.70
2022-10-15T03:06:59.184Z,31.27
2022-10-15T03:13:08.119Z,32.03
2022-10-15T03:15:43.138Z,30.67
2022-10-15T03:18:10.111Z,32.23
2022-10-15T03:20:37.802Z,36.67
2022-10-15T03:23:04.796Z,32.43
2022-10-15T03:25:32.768Z,33.80
2022-10-15T03:28:02.767Z,32.37
2022-10-15T03:30:36.759Z,31.53
2022-10-15T03:33:04.662Z,33.57
2022-10-15T03:35:32.148Z,36.93
2022-10-15T03:37:59.456Z,34.70
2022-10-15T03:40:26.879Z,32.00
2022-10-15T03:42:57.946Z,33.57
2022-10-15T03:45:26.005Z,34.23
2022-10-15T03:48:09.947Z,35.73
2022-10-15T03:50:37.085Z,33.53
2022-10-15T03:53:05.819Z,32.07
2022-10-15T03:55:34.019Z,33.00
2022-10-15T03:58:01.619Z,38.33
2022-10-15T04:00:30.011Z,34.40
2022-10-15T04:03:00.342Z,35.57
2022-10-15T04:05:29.039Z,37.67
2022-10-15T04:08:02.565Z,37.80
2022-10-15T04:10:32.533Z,40.03
2022-10-15T04:12:59.789Z,39.37
2022-10-15T04:15:27.902Z,40.50
2022-10-15T04:17:59.874Z,38.73
2022-10-15T04:20:28.542Z,39.57
2022-10-15T04:23:06.904Z,37.73
2022-10-15T04:25:37.373Z,39.33
2022-10-15T04:28:04.699Z,40.20
2022-10-15T04:30:34.372Z,44.27
2022-10-15T04:33:04.707Z,36.70
2022-10-15T04:35:32.314Z,42.70
2022-10-15T04:38:10.528Z,43.07
2022-10-15T04:41:06.877Z,41.93
2022-10-15T04:43:54.246Z,42.73
2022-10-15T04:46:22.712Z,38.97
2022-10-15T04:48:51.014Z,40.13
2022-10-15T04:51:21.797Z,39.43
2022-10-15T04:54:09.009Z,44.93
2022-10-15T04:56:41.455Z,38.57
2022-10-15T04:59:08.829Z,37.20
2022-10-15T05:01:55.780Z,36.53
2022-10-15T05:04:22.850Z,40.50
2022-10-15T05:06:49.916Z,47.27
2022-10-15T05:09:20.100Z,41.43
2022-10-15T05:11:51.504Z,45.47
2022-10-15T05:14:18.670Z,49.00
2022-10-15T05:17:01.927Z,43.60
2022-10-15T05:19:29.058Z,44.90
2022-10-15T05:21:56.265Z,44.63
2022-10-15T05:24:25.317Z,43.97
2022-10-15T05:27:05.337Z,43.43
2022-10-15T05:29:33.840Z,44.30
2022-10-15T05:32:00.901Z,45.00
2022-10-15T05:34:30.637Z,43.53
2022-10-15T05:37:04.919Z,48.43
2022-10-15T05:39:32.264Z,46.30
2022-10-15T05:41:59.954Z,44.50
2022-10-15T05:44:37.945Z,49.23
2022-10-15T05:47:05.159Z,47.10
2022-10-15T05:49:33.459Z,47.13
2022-10-15T05:52:12.861Z,52.17
2022-10-15T05:55:06.032Z,51.13
2022-10-15T05:57:33.000Z,51.43
2022-10-15T06:00:05.935Z,51.37
2022-10-15T06:02:39.258Z,54.80
2022-10-15T06:05:06.802Z,56.67
2022-10-15T06:07:33.913Z,59.50
2022-10-15T06:10:05.641Z,50.87
2022-10-15T06:12:34.444Z,64.03
2022-10-15T06:15:01.516Z,54.57
2022-10-15T06:17:28.468Z,53.80
2022-10-15T06:19:55.443Z,47.77
2022-10-15T06:22:22.746Z,51.87
2022-10-15T06:24:49.868Z,51.63
2022-10-15T06:27:17.021Z,51.70
2022-10-15T06:29:44.056Z,47.87
2022-10-15T06:32:11.873Z,46.03
2022-10-15T06:34:43.608Z,48.47
2022-10-15T06:37:10.741Z,50.80
2022-10-15T06:39:37.883Z,47.50
2022-10-15T06:42:04.916Z,49.30
2022-10-15T06:44:41.216Z,46.80
2022-10-15T06:47:09.060Z,43.00
2022-10-15T06:49:35.993Z,47.67
2022-10-15T06:52:03.924Z,51.27
2022-10-15T06:54:31.094Z,50.30
2022-10-15T06:56:58.189Z,46.87
2022-10-15T06:59:25.061Z,43.57
2022-10-15T07:01:54.501Z,48.33
2022-10-15T07:04:23.759Z,51.93
2022-10-15T07:06:50.802Z,51.13
2022-10-15T07:09:20.614Z,50.13
2022-10-15T07:11:47.597Z,49.73
2022-10-15T07:14:14.712Z,53.43
2022-10-15T07:16:41.704Z,51.03
2022-10-15T07:19:08.677Z,53.63
2022-10-15T07:21:35.717Z,50.73
2022-10-15T07:24:02.716Z,54.50
2022-10-15T07:26:31.218Z,47.63
2022-10-15T07:28:59.508Z,46.37
2022-10-15T07:31:26.876Z,48.00
2022-10-15T07:33:53.824Z,47.03
2022-10-15T07:36:20.924Z,48.40
2022-10-15T07:38:47.904Z,44.43
2022-10-15T07:41:14.956Z,41.70
2022-10-15T07:43:44.549Z,47.07
2022-10-15T07:46:11.877Z,40.17
2022-10-15T07:48:38.954Z,40.10
2022-10-15T07:51:07.401Z,35.83
2022-10-15T07:53:34.534Z,38.03
2022-10-15T07:56:12.324Z,39.70
2022-10-15T07:58:39.845Z,32.50
2022-10-15T08:01:08.506Z,36.23
2022-10-15T08:03:36.262Z,39.40
2022-10-15T08:06:07.957Z,44.33
2022-10-15T08:08:35.934Z,34.80
2022-10-15T08:11:11.090Z,37.37
2022-10-15T08:13:42.339Z,37.57
2022-10-15T08:16:10.979Z,40.00
2022-10-15T08:18:38.730Z,41.57
2022-10-15T08:21:07.893Z,43.70
2022-10-15T08:23:35.645Z,42.13
2022-10-15T08:26:03.052Z,43.67
2022-10-15T08:28:31.396Z,41.20
2022-10-15T08:31:04.285Z,43.80
2022-10-15T08:33:37.196Z,38.27
2022-10-15T08:36:07.457Z,50.03
2022-10-15T08:38:35.551Z,39.63
2022-10-15T08:41:05.506Z,44.83
2022-10-15T08:43:42.774Z,41.70
2022-10-15T08:46:38.885Z,47.63
2022-10-15T08:49:14.287Z,42.90
2022-10-15T08:51:48.299Z,42.63
2022-10-15T08:54:18.208Z,42.93
2022-10-15T08:56:50.956Z,41.43
2022-10-15T08:59:42.917Z,41.10
2022-10-15T09:02:15.762Z,41.10
2022-10-15T09:04:59.773Z,46.27
2022-10-15T09:07:31.139Z,49.17
2022-10-15T09:10:25.410Z,49.87
2022-10-15T09:13:10.380Z,49.40
2022-10-15T09:15:50.701Z,46.90
2022-10-15T09:18:22.871Z,44.33
2022-10-15T09:20:50.760Z,50.73
2022-10-15T09:23:20.865Z,51.30
2022-10-15T09:26:09.843Z,47.63
2022-10-15T09:28:50.506Z,50.00
2022-10-15T09:31:28.022Z,46.07
2022-10-15T09:34:03.937Z,47.40
2022-10-15T09:36:51.423Z,46.83
2022-10-15T09:39:46.039Z,49.17
2022-10-15T09:42:39.036Z,49.57
2022-10-15T09:45:11.872Z,49.33
2022-10-15T09:47:41.159Z,52.87
2022-10-15T09:50:10.538Z,50.40
2022-10-15T09:52:59.475Z,49.50
2022-10-15T09:55:32.011Z,46.50
2022-10-15T09:58:06.356Z,45.60
2022-10-15T10:00:52.362Z,47.17
2022-10-15T10:03:19.761Z,42.60
2022-10-15T10:05:47.497Z,46.53
2022-10-15T10:08:25.644Z,53.53
2022-10-15T10:10:57.752Z,51.83
2022-10-15T10:13:26.233Z,46.47
2022-10-15T10:15:58.421Z,53.57
2022-10-15T10:18:26.802Z,52.73
2022-10-15T10:21:03.712Z,44.03
2022-10-15T10:23:36.389Z,41.43
2022-10-15T10:26:09.505Z,48.83
2022-10-15T10:29:04.684Z,40.40
2022-10-15T10:31:42.743Z,45.43
2022-10-15T10:34:31.763Z,42.23
2022-10-15T10:37:03.953Z,36.97
2022-10-15T10:39:36.625Z,51.60
2022-10-15T10:42:22.815Z,44.53
2022-10-15T10:44:49.819Z,46.73
2022-10-15T10:47:26.143Z,43.13
2022-10-15T10:49:58.930Z,46.77
2022-10-15T10:52:28.899Z,41.47
2022-10-15T10:55:19.277Z,46.07
2022-10-15T10:57:57.749Z,46.53
2022-10-15T11:00:41.168Z,40.47
2022-10-15T11:03:27.759Z,47.57
2022-10-15T11:06:23.295Z,44.37
2022-10-15T11:09:03.082Z,37.43
2022-10-15T11:11:34.295Z,47.27
2022-10-15T11:14:10.195Z,41.97
2022-10-15T11:16:54.868Z,35.77
2022-10-15T11:20:24.912Z,44.80
2022-10-15T11:23:12.156Z,40.93
2022-10-15T11:26:20.462Z,47.17
2022-10-15T11:29:11.427Z,39.33
2022-10-15T11:32:14.634Z,38.47
2022-10-15T11:35:17.147Z,38.73
2022-10-15T11:38:14.167Z,40.73
2022-10-15T11:41:11.604Z,33.23
2022-10-15T11:44:04.706Z,38.93
2022-10-15T11:46:55.025Z,34.40
2022-10-15T11:49:42.128Z,37.13
2022-10-15T11:52:30.994Z,31.63
2022-10-15T11:55:19.382Z,36.87
2022-10-15T11:57:51.190Z,38.40
2022-10-15T12:00:41.606Z,36.10
2022-10-15T12:03:17.127Z,39.57
2022-10-15T12:05:54.592Z,34.07
2022-10-15T12:08:25.089Z,37.57
2022-10-15T12:11:04.276Z,34.70
2022-10-15T12:13:42.342Z,31.17
2022-10-15T12:16:35.475Z,41.37
2022-10-15T12:19:22.389Z,37.10
2022-10-15T12:21:56.771Z,30.87
2022-10-15T12:24:41.611Z,30.53
2022-10-15T12:27:20.585Z,29.33
2022-10-15T12:30:13.997Z,28.20
2022-10-15T12:32:46.063Z,24.87
2022-10-15T12:35:15.882Z,30.97
2022-10-15T12:37:46.276Z,28.33
2022-10-15T12:40:39.971Z,27.33
2022-10-15T12:43:19.932Z,29.10
2022-10-15T12:46:03.185Z,26.20
2022-10-15T12:48:44.617Z,22.53
2022-10-15T12:51:23.581Z,22.43
2022-10-15T12:53:58.970Z,23.50
2022-10-15T12:56:40.252Z,26.80
2022-10-15T12:59:32.068Z,22.93
2022-10-15T13:02:02.419Z,23.63
2022-10-15T13:04:39.151Z,26.33
2022-10-15T13:07:06.381Z,26.17
2022-10-15T13:09:33.679Z,27.07
2022-10-15T13:12:02.711Z,29.23
2022-10-15T13:14:33.804Z,28.63
2022-10-15T13:17:05.287Z,27.53
2022-10-15T13:19:46.200Z,22.77
2022-10-15T13:22:29.624Z,26.77
2022-10-15T13:24:57.109Z,22.97
2022-10-15T13:27:32.016Z,25.37
2022-10-15T13:30:04.479Z,25.50
2022-10-15T13:32:36.873Z,28.83
2022-10-15T13:35:12.345Z,19.23
2022-10-15T13:37:41.059Z,22.90
2022-10-15T13:40:08.746Z,19.33
2022-10-15T13:42:35.870Z,21.67
2022-10-15T13:45:05.074Z,21.53
2022-10-15T13:47:37.728Z,22.00
2022-10-15T13:50:17.826Z,21.50
2022-10-15T13:53:10.954Z,21.80
2022-10-15T13:55:40.156Z,17.77
2022-10-15T13:58:27.679Z,21.23
2022-10-15T14:01:03.292Z,21.63
2022-10-15T14:03:32.147Z,23.33
2022-10-15T14:06:14.373Z,21.50
2022-10-15T14:08:41.364Z,20.40
2022-10-15T14:11:13.057Z,21.50
2022-10-15T14:13:46.692Z,16.60
2022-10-15T14:16:25.589Z,18.83
2022-10-15T14:19:06.644Z,15.73
2022-10-15T14:21:35.491Z,19.90
2022-10-15T14:24:16.409Z,14.93
2022-10-15T14:26:44.354Z,17.63
2022-10-15T14:29:21.181Z,17.63
2022-10-15T14:31:49.513Z,20.60
2022-10-15T14:34:34.668Z,16.00
2022-10-15T14:37:32.862Z,20.60
2022-10-15T14:40:11.700Z,18.20
2022-10-15T14:42:43.249Z,20.07
2022-10-15T14:45:27.899Z,20.37
2022-10-15T14:48:11.078Z,19.17
2022-10-15T14:50:42.763Z,20.30
2022-10-15T14:53:16.136Z,15.43
2022-10-15T14:55:51.303Z,20.43
2022-10-15T14:58:21.492Z,17.67
2022-10-15T15:00:54.951Z,15.33
2022-10-15T15:03:29.959Z,15.47
2022-10-15T15:05:58.388Z,19.70
2022-10-15T15:08:26.298Z,19.87
2022-10-15T15:10:56.544Z,17.90
2022-10-15T15:13:26.223Z,15.67
2022-10-15T15:15:53.609Z,17.67
2022-10-15T15:18:21.083Z,16.90
2022-10-15T15:20:49.789Z,17.87
2022-10-15T15:23:20.823Z,20.53
2022-10-15T15:25:48.181Z,16.73
2022-10-15T15:28:20.162Z,22.57
2022-10-15T15:30:55.116Z,18.43
2022-10-15T15:33:22.072Z,14.60
2022-10-15T15:35:51.920Z,13.97
2022-10-15T15:38:30.704Z,18.17
2022-10-15T15:41:06.011Z,15.80
2022-10-15T15:43:33.029Z,17.30
2022-10-15T15:45:59.959Z,18.47
2022-10-15T15:48:26.942Z,20.13
2022-10-15T15:50:54.617Z,16.83
2022-10-15T15:53:21.649Z,18.17
2022-10-15T15:55:48.741Z,17.10
2022-10-15T15:58:15.765Z,16.23
2022-10-15T16:00:42.747Z,18.77
2022-10-15T16:03:13.431Z,16.93
2022-10-15T16:05:41.602Z,15.07
2022-10-15T16:08:09.502Z,19.17
2022-10-15T16:10:36.501Z,15.03
2022-10-15T16:13:04.038Z,17.10
2022-10-15T16:15:31.004Z,14.53
2022-10-15T16:17:57.937Z,15.63
2022-10-15T16:20:24.941Z,15.83
2022-10-15T16:22:53.469Z,13.07
2022-10-15T16:25:22.453Z,19.97
2022-10-15T16:27:52.066Z,19.70
2022-10-15T16:30:19.487Z,20.90
2022-10-15T16:32:46.565Z,18.07
2022-10-15T16:35:13.669Z,16.67
2022-10-15T16:37:40.716Z,20.63
2022-10-15T16:40:08.437Z,22.33
2022-10-15T16:42:35.509Z,18.50
2022-10-15T16:45:02.543Z,20.80
2022-10-15T16:47:29.589Z,17.50
2022-10-15T16:49:56.654Z,16.60
2022-10-15T16:52:23.999Z,24.87
2022-10-15T16:54:51.156Z,19.40
2022-10-15T16:57:18.095Z,22.80
2022-10-15T16:59:45.077Z,16.00
2022-10-15T17:02:12.159Z,24.17
2022-10-15T17:04:39.866Z,21.13
2022-10-15T17:07:06.842Z,23.27
2022-10-15T17:09:33.905Z,20.63
2022-10-15T17:12:00.957Z,19.03
2022-10-15T17:14:28.174Z,17.17
2022-10-15T17:16:55.137Z,20.60
2022-10-15T17:19:27.854Z,20.17
2022-10-15T17:21:57.611Z,18.57
2022-10-15T17:24:24.570Z,22.90
2022-10-15T17:26:51.591Z,20.20
2022-10-15T17:29:20.864Z,25.03
2022-10-15T17:31:48.833Z,22.10
2022-10-15T17:34:16.505Z,18.67
2022-10-15T17:36:47.320Z,25.90
2022-10-15T17:39:20.379Z,18.13
2022-10-15T17:41:48.055Z,17.57
2022-10-15T17:44:15.265Z,22.83
2022-10-15T17:46:42.537Z,21.93
2022-10-15T17:49:11.104Z,19.47
2022-10-15T17:51:39.533Z,24.57
2022-10-15T17:54:06.594Z,23.03
2022-10-15T17:56:35.362Z,22.10
2022-10-15T17:59:05.209Z,22.33
2022-10-15T18:04:23.066Z,23.10
2022-10-15T18:06:50.016Z,23.47
2022-10-15T18:09:24.893Z,22.07
2022-10-15T18:11:55.657Z,28.13
2022-10-15T18:14:31.088Z,22.10
2022-10-15T18:16:58.341Z,22.20
2022-10-15T18:19:28.294Z,23.67
2022-10-15T18:21:55.686Z,24.67
2022-10-15T18:24:23.698Z,24.17
2022-10-15T18:26:51.702Z,24.63
2022-10-15T18:29:18.926Z,26.67
2022-10-15T18:31:47.176Z,26.37
2022-10-15T18:34:14.703Z,24.87
2022-10-15T18:36:43.554Z,25.97
2022-10-15T18:39:11.170Z,28.50
2022-10-15T18:41:40.081Z,27.83
2022-10-15T18:44:16.813Z,30.77
2022-10-15T18:46:45.131Z,30.03
2022-10-15T18:49:13.937Z,30.23
2022-10-15T18:51:41.322Z,30.47
2022-10-15T18:54:10.770Z,33.77
2022-10-15T18:56:37.921Z,30.90
2022-10-15T18:59:05.013Z,33.90
2022-10-15T19:01:41.766Z,34.03
2022-10-15T19:04:14.626Z,34.30
2022-10-15T19:06:44.397Z,28.37
2022-10-15T19:09:15.369Z,36.43
2022-10-15T19:11:44.440Z,34.53
2022-10-15T19:14:12.238Z,33.13
2022-10-15T19:16:39.290Z,32.37
2022-10-15T19:19:13.193Z,35.57
2022-10-15T19:21:40.237Z,37.23
2022-10-15T19:24:07.260Z,33.23
2022-10-15T19:26:34.849Z,36.10
2022-10-15T19:29:02.516Z,33.83
2022-10-15T19:31:32.439Z,37.80
2022-10-15T19:34:00.258Z,35.20
2022-10-15T19:36:34.222Z,35.80
2022-10-15T19:39:03.895Z,40.67
2022-10-15T19:41:30.868Z,43.93
2022-10-15T19:43:57.896Z,43.47
2022-10-15T19:46:24.996Z,36.83
2022-10-15T19:48:52.033Z,35.40
2022-10-15T19:51:21.625Z,34.93
2022-10-15T19:53:56.408Z,35.70
2022-10-15T19:56:23.685Z,39.73
2022-10-15T19:58:56.041Z,34.90
2022-10-15T20:01:23.178Z,37.13
2022-10-15T20:03:50.237Z,37.57
2022-10-15T20:06:17.979Z,37.60
2022-10-15T20:08:45.189Z,40.50
2022-10-15T20:11:12.646Z,45.80
2022-10-15T20:13:40.389Z,38.07
2022-10-15T20:16:10.260Z,40.60
2022-10-15T20:18:37.602Z,35.37
2022-10-15T20:21:09.305Z,35.70
2022-10-15T20:23:38.159Z,37.60
2022-10-15T20:26:07.390Z,37.30
2022-10-15T20:28:39.432Z,41.60
2022-10-15T20:31:12.229Z,37.17
2022-10-15T20:33:41.048Z,40.20
2022-10-15T20:36:12.800Z,40.83
2022-10-15T20:38:42.169Z,41.17
2022-10-15T20:41:17.175Z,41.67
2022-10-15T20:43:45.479Z,41.27
2022-10-15T20:46:19.197Z,35.50
2022-10-15T20:48:46.612Z,39.17
2022-10-15T20:51:17.523Z,38.73
2022-10-15T20:53:45.700Z,33.83
2022-10-15T20:56:12.822Z,37.93
2022-10-15T20:58:39.922Z,36.83
2022-10-15T21:01:07.869Z,39.23
2022-10-15T21:03:35.053Z,38.27
2022-10-15T21:06:02.223Z,41.47
2022-10-15T21:08:29.454Z,39.50
2022-10-15T21:11:07.554Z,40.40
2022-10-15T21:13:35.028Z,38.47
2022-10-15T21:16:05.628Z,38.17
2022-10-15T21:18:33.913Z,35.07
2022-10-15T21:21:02.730Z,39.90
2022-10-15T21:23:30.957Z,41.97
2022-10-15T21:26:03.363Z,39.63
2022-10-15T21:28:30.910Z,38.60
2022-10-15T21:30:57.895Z,41.27
2022-10-15T21:33:24.884Z,41.10
2022-10-15T21:35:51.843Z,41.73
2022-10-15T21:38:18.795Z,36.67
2022-10-15T21:40:49.588Z,44.90
2022-10-15T21:43:16.769Z,40.57
2022-10-15T21:45:43.801Z,42.37
2022-10-15T21:48:10.771Z,39.40
2022-10-15T21:50:37.760Z,43.17
2022-10-15T21:53:05.146Z,45.67
2022-10-15T21:55:32.375Z,42.00
2022-10-15T21:57:59.413Z,41.13
2022-10-15T22:00:26.595Z,41.50
2022-10-15T22:02:53.561Z,45.43
2022-10-15T22:05:20.483Z,46.30
2022-10-15T22:07:47.446Z,42.73
2022-10-15T22:10:14.477Z,39.90
2022-10-15T22:12:41.559Z,36.47
2022-10-15T22:15:08.927Z,42.97
2022-10-15T22:17:35.907Z,38.23
2022-10-15T22:20:03.000Z,44.77
2022-10-15T22:22:29.964Z,43.83
2022-10-15T22:24:59.591Z,47.20
2022-10-15T22:27:27.252Z,43.27
2022-10-15T22:29:54.213Z,43.00
2022-10-15T22:32:21.142Z,43.00
2022-10-15T22:34:48.134Z,45.37
2022-10-15T22:37:15.118Z,40.53
2022-10-15T22:39:42.060Z,40.90
2022-10-15T22:42:09.198Z,39.93
2022-10-15T22:44:36.299Z,43.00
2022-10-15T22:47:03.393Z,43.60
2022-10-15T22:49:30.392Z,47.40
2022-10-15T22:51:57.397Z,44.20
2022-10-15T22:54:24.406Z,41.97
2022-10-15T22:56:52.082Z,42.27
2022-10-15T22:59:19.326Z,42.10
2022-10-15T23:01:46.437Z,39.93
2022-10-15T23:04:15.397Z,39.23
2022-10-15T23:06:42.541Z,42.37
2022-10-15T23:09:11.305Z,41.53
2022-10-15T23:11:41.185Z,38.97
2022-10-15T23:14:12.025Z,41.23
2022-10-15T23:16:47.333Z,40.03
2022-10-15T23:19:17.542Z,36.70
2022-10-15T23:21:47.852Z,42.07
2022-10-15T23:24:15.981Z,36.83
2022-10-15T23:26:43.570Z,40.60
2022-10-15T23:29:19.078Z,39.60
2022-10-15T23:31:46.905Z,38.00
2022-10-15T23:34:17.173Z,39.93
2022-10-15T23:36:44.323Z,40.57
2022-10-15T23:39:18.026Z,38.70
2022-10-15T23:41:45.327Z,39.20
2022-10-15T23:44:12.700Z,43.90
2022-10-15T23:46:40.213Z,42.43
2022-10-15T23:49:07.363Z,39.27
2022-10-15T23:51:37.008Z,37.87
2022-10-15T23:54:11.622Z,38.80
2022-10-15T23:56:38.713Z,34.97
2022-10-15T23:59:05.716Z,37.47
